Time;durP1;ratioP1;P1;durP2;ratioP2;P2;SDS_P1;SDS_P2;PMS_P1;PMS_P2;Temp;Humidity;BMP_temperature;BMP_pressure;BME280_temperature;BME280_humidity;BME280_pressure;Samples;Min_cycle;Max_cycle;Signal;HPM_P1;HPM_P2
2022/01/03 00:00:00;;;;;;;54.70;37.53;;;;;;;;;;5020925;28;20337;-88
2022/01/03 00:02:26;;;;;;;58.17;37.95;;;;;;;;;;5020707;28;20026;-87
2022/01/03 00:04:53;;;;;;;56.60;36.47;;;;;;;;;;5020981;28;20022;-88
2022/01/03 00:07:19;;;;;;;53.08;33.95;;;;;;;;;;5019947;28;20022;-88
2022/01/03 00:09:45;;;;;;;53.92;35.88;;;;;;;;;;5020735;28;20022;-87
2022/01/03 00:12:12;;;;;;;51.78;35.05;;;;;;;;;;5020637;28;20065;-87
2022/01/03 00:14:38;;;;;;;59.15;37.22;;;;;;;;;;5019691;28;20029;-88
2022/01/03 00:17:05;;;;;;;58.67;37.88;;;;;;;;;;5020634;28;20064;-88
2022/01/03 00:19:31;;;;;;;60.85;39.10;;;;;;;;;;5020950;28;20022;-87
2022/01/03 00:21:58;;;;;;;64.82;40.83;;;;;;;;;;5020848;28;20118;-87
2022/01/03 00:24:26;;;;;;;60.42;38.72;;;;;;;;;;5019624;28;20446;-88
2022/01/03 00:26:55;;;;;;;63.33;40.78;;;;;;;;;;5020495;28;20033;-88
2022/01/03 00:29:22;;;;;;;72.32;41.55;;;;;;;;;;5020376;28;20096;-89
2022/01/03 00:31:48;;;;;;;64.00;40.55;;;;;;;;;;5020526;28;20048;-88
2022/01/03 00:34:15;;;;;;;65.50;40.95;;;;;;;;;;5020314;28;20072;-88
2022/01/03 00:36:44;;;;;;;64.60;41.40;;;;;;;;;;5020069;28;20088;-89
2022/01/03 00:39:11;;;;;;;62.33;40.42;;;;;;;;;;5020418;28;20026;-88
2022/01/03 00:41:38;;;;;;;69.40;42.92;;;;;;;;;;5020202;28;20026;-88
2022/01/03 00:44:05;;;;;;;68.40;43.90;;;;;;;;;;5020066;28;20080;-88
2022/01/03 00:46:33;;;;;;;66.47;42.72;;;;;;;;;;5020609;28;20026;-88
2022/01/03 00:49:00;;;;;;;65.22;42.20;;;;;;;;;;5019289;28;20061;-88
2022/01/03 00:51:27;;;;;;;64.40;40.92;;;;;;;;;;5019035;28;20072;-88
2022/01/03 00:53:53;;;;;;;63.40;41.30;;;;;;;;;;5019564;28;20109;-88
2022/01/03 00:56:24;;;;;;;66.25;42.17;;;;;;;;;;5018998;28;20042;-88
2022/01/03 00:59:05;;;;;;;69.43;43.42;;;;;;;;;;5019192;28;20032;-88
2022/01/03 01:01:31;;;;;;;69.22;44.15;;;;;;;;;;5019815;28;20030;-88
2022/01/03 01:03:58;;;;;;;71.45;44.35;;;;;;;;;;5018640;28;20038;-88
2022/01/03 01:06:25;;;;;;;64.82;41.50;;;;;;;;;;5019601;28;20030;-88
2022/01/03 01:08:57;;;;;;;63.80;40.05;;;;;;;;;;5019717;28;20022;-88
2022/01/03 01:11:30;;;;;;;58.28;38.05;;;;;;;;;;5019517;28;20309;-88
2022/01/03 01:13:57;;;;;;;61.30;36.53;;;;;;;;;;5019545;28;20034;-88
2022/01/03 01:16:23;;;;;;;56.88;37.55;;;;;;;;;;5018405;28;20037;-87
2022/01/03 01:18:50;;;;;;;59.22;37.47;;;;;;;;;;5019550;28;20029;-88
2022/01/03 01:21:16;;;;;;;54.65;34.97;;;;;;;;;;5019471;28;20026;-87
2022/01/03 01:23:42;;;;;;;60.63;36.63;;;;;;;;;;5019657;28;20411;-88
2022/01/03 01:28:53;;;;;;;61.58;40.53;;;;;;;;;;5019724;28;20378;-89
2022/01/03 01:31:21;;;;;;;61.15;40.70;;;;;;;;;;5018513;28;20116;-89
2022/01/03 01:33:49;;;;;;;62.80;42.63;;;;;;;;;;5019531;28;20109;-88
2022/01/03 01:36:15;;;;;;;63.55;41.38;;;;;;;;;;5019117;28;20128;-91
2022/01/03 01:38:41;;;;;;;61.42;38.85;;;;;;;;;;5019299;28;20030;-89
2022/01/03 01:41:09;;;;;;;57.33;37.78;;;;;;;;;;5018889;28;20030;-88
2022/01/03 01:43:36;;;;;;;55.17;36.45;;;;;;;;;;5018619;28;20026;-90
2022/01/03 01:46:11;;;;;;;56.10;34.47;;;;;;;;;;5019030;28;20025;-91
2022/01/03 01:48:37;;;;;;;55.55;34.03;;;;;;;;;;5018212;28;20068;-90
2022/01/03 01:51:04;;;;;;;50.90;31.77;;;;;;;;;;5018280;28;20034;-89
2022/01/03 01:53:31;;;;;;;51.65;33.47;;;;;;;;;;5019085;28;20109;-89
2022/01/03 01:55:59;;;;;;;51.47;32.80;;;;;;;;;;5018708;28;20405;-90
2022/01/03 01:58:51;;;;;;;48.35;31.88;;;;;;;;;;5019100;28;20037;-89
2022/01/03 02:01:18;;;;;;;53.40;33.65;;;;;;;;;;5015282;28;20041;-91
2022/01/03 02:03:58;;;;;;;53.35;33.47;;;;;;;;;;5017898;28;20021;-89
2022/01/03 02:06:40;;;;;;;52.92;33.13;;;;;;;;;;5018783;28;20033;-89
2022/01/03 02:09:08;;;;;;;55.55;35.88;;;;;;;;;;5018790;28;20026;-90
2022/01/03 02:11:34;;;;;;;53.30;35.15;;;;;;;;;;5018776;28;20057;-89
2022/01/03 02:14:00;;;;;;;50.22;33.25;;;;;;;;;;5017626;28;20045;-90
2022/01/03 02:16:26;;;;;;;48.33;31.25;;;;;;;;;;5018514;28;20026;-89
2022/01/03 02:18:52;;;;;;;47.25;30.92;;;;;;;;;;5018857;28;20084;-89
2022/01/03 02:21:20;;;;;;;50.05;31.83;;;;;;;;;;5018723;28;20049;-90
2022/01/03 02:23:47;;;;;;;48.90;31.25;;;;;;;;;;5018986;28;20041;-89
2022/01/03 02:26:13;;;;;;;47.95;30.40;;;;;;;;;;5018294;28;20030;-89
2022/01/03 02:28:39;;;;;;;49.28;31.45;;;;;;;;;;5017624;28;20030;-90
2022/01/03 02:31:05;;;;;;;46.03;31.75;;;;;;;;;;5001314;28;20080;-90
2022/01/03 02:33:32;;;;;;;49.75;31.23;;;;;;;;;;5018112;28;20026;-89
2022/01/03 02:35:58;;;;;;;48.42;31.00;;;;;;;;;;5018173;28;20132;-89
2022/01/03 02:38:25;;;;;;;47.45;32.05;;;;;;;;;;5018168;28;20049;-89
2022/01/03 02:40:51;;;;;;;47.30;31.52;;;;;;;;;;5018463;28;20450;-90
2022/01/03 02:43:17;;;;;;;48.45;31.75;;;;;;;;;;5017396;28;20065;-89
2022/01/03 02:45:43;;;;;;;46.15;31.02;;;;;;;;;;5018214;28;20022;-90
2022/01/03 02:48:11;;;;;;;47.15;31.77;;;;;;;;;;5017775;28;20450;-90
2022/01/03 02:50:39;;;;;;;47.53;31.20;;;;;;;;;;5017974;28;20030;-90
2022/01/03 02:53:05;;;;;;;45.20;30.17;;;;;;;;;;5017991;28;20088;-89
2022/01/03 02:55:31;;;;;;;48.75;31.00;;;;;;;;;;5017081;28;20026;-90
2022/01/03 02:58:05;;;;;;;50.58;31.55;;;;;;;;;;5018295;28;20030;-90
2022/01/03 03:00:32;;;;;;;52.30;30.92;;;;;;;;;;5018184;28;20029;-89
2022/01/03 03:02:58;;;;;;;49.75;31.92;;;;;;;;;;5017066;28;20117;-89
2022/01/03 03:05:24;;;;;;;47.92;30.60;;;;;;;;;;5017178;28;20050;-89
2022/01/03 03:07:53;;;;;;;53.20;32.78;;;;;;;;;;5018113;28;20025;-90
2022/01/03 03:10:20;;;;;;;49.03;30.40;;;;;;;;;;5017994;28;20033;-91
2022/01/03 03:12:47;;;;;;;47.63;29.83;;;;;;;;;;5016984;28;20057;-89
2022/01/03 03:15:14;;;;;;;43.03;28.70;;;;;;;;;;5017826;28;20022;-89
2022/01/03 03:17:40;;;;;;;47.42;29.13;;;;;;;;;;5016868;28;20147;-89
2022/01/03 03:20:14;;;;;;;46.03;30.15;;;;;;;;;;5017678;28;20026;-89
2022/01/03 03:22:41;;;;;;;46.65;28.42;;;;;;;;;;5016888;28;20025;-90
2022/01/03 03:25:21;;;;;;;47.33;29.25;;;;;;;;;;5017698;28;20064;-89
2022/01/03 03:27:51;;;;;;;41.08;27.27;;;;;;;;;;5017680;28;20097;-90
2022/01/03 03:30:19;;;;;;;45.47;28.50;;;;;;;;;;5017541;28;20033;-91
2022/01/03 03:32:46;;;;;;;49.40;29.80;;;;;;;;;;5017825;28;20030;-90
2022/01/03 03:35:12;;;;;;;42.15;27.83;;;;;;;;;;5016423;28;20038;-89
2022/01/03 03:37:38;;;;;;;43.17;28.52;;;;;;;;;;5017769;28;20034;-90
2022/01/03 03:40:05;;;;;;;44.88;27.88;;;;;;;;;;5017720;28;20029;-89
2022/01/03 03:42:31;;;;;;;41.65;27.92;;;;;;;;;;5017636;28;20392;-88
2022/01/03 03:44:57;;;;;;;43.03;27.17;;;;;;;;;;5017734;28;20308;-90
2022/01/03 03:47:23;;;;;;;44.20;27.63;;;;;;;;;;5017518;28;20022;-89
2022/01/03 03:49:49;;;;;;;47.75;28.25;;;;;;;;;;5016594;28;20036;-90
2022/01/03 03:52:15;;;;;;;49.25;31.05;;;;;;;;;;5017730;28;20060;-89
2022/01/03 03:54:41;;;;;;;47.22;31.58;;;;;;;;;;5016602;28;20026;-90
2022/01/03 03:57:12;;;;;;;51.30;29.95;;;;;;;;;;5017468;28;20025;-89
2022/01/03 03:59:38;;;;;;;49.90;31.42;;;;;;;;;;5017397;28;20096;-88
2022/01/03 04:02:05;;;;;;;54.28;36.40;;;;;;;;;;5017453;28;20033;-88
2022/01/03 04:04:31;;;;;;;54.95;33.72;;;;;;;;;;5017369;28;20088;-89
2022/01/03 04:06:57;;;;;;;43.08;29.15;;;;;;;;;;5019662;28;20420;-90
2022/01/03 04:09:24;;;;;;;41.58;27.77;;;;;;;;;;5021002;28;20619;-90
2022/01/03 04:11:50;;;;;;;43.42;29.67;;;;;;;;;;5021000;28;20048;-90
2022/01/03 04:14:16;;;;;;;43.45;29.75;;;;;;;;;;5020960;28;20026;-89
2022/01/03 04:16:42;;;;;;;48.33;29.70;;;;;;;;;;5020958;28;20026;-89
2022/01/03 04:19:09;;;;;;;48.17;31.80;;;;;;;;;;5020074;28;20022;-88
2022/01/03 04:21:37;;;;;;;47.47;32.03;;;;;;;;;;5019768;28;20431;-88
2022/01/03 04:24:03;;;;;;;48.55;32.55;;;;;;;;;;5019616;28;20041;-88
2022/01/03 04:26:29;;;;;;;47.65;31.95;;;;;;;;;;5020680;28;20018;-88
2022/01/03 04:28:55;;;;;;;49.35;31.42;;;;;;;;;;5020610;28;20026;-88
2022/01/03 04:31:22;;;;;;;48.30;30.67;;;;;;;;;;5020564;28;20396;-89
2022/01/03 04:33:48;;;;;;;44.15;30.25;;;;;;;;;;5020320;28;20057;-88
2022/01/03 04:36:14;;;;;;;47.60;31.55;;;;;;;;;;5020309;28;20359;-88
2022/01/03 04:38:40;;;;;;;50.67;31.38;;;;;;;;;;5019634;28;20033;-88
2022/01/03 04:41:06;;;;;;;45.08;29.15;;;;;;;;;;5020358;28;20026;-88
2022/01/03 04:43:36;;;;;;;42.63;28.95;;;;;;;;;;5020239;28;20026;-88
2022/01/03 04:46:02;;;;;;;57.20;36.33;;;;;;;;;;5020378;28;20501;-87
2022/01/03 04:48:28;;;;;;;57.50;35.53;;;;;;;;;;5020341;28;20018;-88
2022/01/03 04:50:54;;;;;;;55.20;34.97;;;;;;;;;;5020299;28;20033;-88
2022/01/03 04:53:25;;;;;;;50.78;33.80;;;;;;;;;;5019281;28;20426;-88
2022/01/03 04:55:51;;;;;;;50.55;33.83;;;;;;;;;;5011473;28;20026;-88
2022/01/03 04:58:17;;;;;;;58.80;35.40;;;;;;;;;;5000270;28;20030;-88
2022/01/03 05:00:43;;;;;;;53.05;35.72;;;;;;;;;;5000381;28;20374;-88
2022/01/03 05:06:13;;;;;;;55.42;33.70;;;;;;;;;;4988055;28;20032;-88
2022/01/03 05:08:41;;;;;;;58.25;35.80;;;;;;;;;;4999972;28;20393;-87
2022/01/03 05:11:07;;;;;;;71.35;41.22;;;;;;;;;;5000016;28;20033;-89
2022/01/03 05:13:33;;;;;;;66.38;41.67;;;;;;;;;;5000472;28;20029;-90
2022/01/03 05:16:00;;;;;;;65.32;42.13;;;;;;;;;;5000296;28;20057;-89
2022/01/03 05:21:30;;;;;;;76.95;51.22;;;;;;;;;;4999805;28;20033;-87
2022/01/03 05:23:56;;;;;;;84.53;53.42;;;;;;;;;;5000021;28;20022;-88
2022/01/03 05:26:22;;;;;;;74.72;49.13;;;;;;;;;;4998888;28;20041;-89
2022/01/03 05:28:48;;;;;;;66.03;43.95;;;;;;;;;;4999427;28;20034;-89
2022/01/03 05:31:15;;;;;;;71.28;44.42;;;;;;;;;;4999328;28;20041;-88
2022/01/03 05:34:18;;;;;;;66.07;43.85;;;;;;;;;;4999507;28;20026;-89
2022/01/03 05:36:45;;;;;;;;;;;;;;;;;;4999659;28;20595;-89
2022/01/03 05:39:11;;;;;;;78.97;49.13;;;;;;;;;;4999984;28;20300;-92
2022/01/03 05:41:37;;;;;;;86.45;52.20;;;;;;;;;;4999749;28;20312;-90
2022/01/03 05:44:03;;;;;;;94.43;55.22;;;;;;;;;;4998180;28;20040;-90
2022/01/03 05:46:30;;;;;;;89.78;52.63;;;;;;;;;;4999153;28;20024;-89
2022/01/03 05:48:56;;;;;;;68.72;43.53;;;;;;;;;;4997757;28;20126;-89
2022/01/03 05:51:22;;;;;;;60.67;38.47;;;;;;;;;;4997638;28;20026;-89
2022/01/03 05:53:48;;;;;;;55.17;36.53;;;;;;;;;;4999271;28;20416;-90
2022/01/03 05:56:14;;;;;;;57.47;37.55;;;;;;;;;;4998111;28;20440;-89
2022/01/03 05:58:40;;;;;;;54.20;35.10;;;;;;;;;;4999818;28;20030;-89
2022/01/03 06:01:06;;;;;;;54.17;35.20;;;;;;;;;;4998834;28;20041;-89
2022/01/03 06:06:54;;;;;;;48.83;33.78;;;;;;;;;;4998790;28;20092;-90
2022/01/03 06:09:21;;;;;;;68.60;38.13;;;;;;;;;;4999484;28;20019;-90
2022/01/03 06:11:47;;;;;;;88.88;45.53;;;;;;;;;;4998371;28;20068;-89
2022/01/03 06:14:16;;;;;;;122.40;59.95;;;;;;;;;;4999412;28;20109;-89
2022/01/03 06:16:43;;;;;;;138.05;66.85;;;;;;;;;;4998497;28;20037;-89
2022/01/03 06:22:13;;;;;;;129.73;70.53;;;;;;;;;;4998337;28;20045;-89
2022/01/03 06:24:40;;;;;;;121.13;67.90;;;;;;;;;;4997746;28;20114;-89
2022/01/03 06:27:06;;;;;;;99.13;57.28;;;;;;;;;;4998879;28;20482;-90
2022/01/03 06:29:32;;;;;;;71.78;46.83;;;;;;;;;;4997508;28;20038;-91
2022/01/03 06:31:59;;;;;;;71.22;44.72;;;;;;;;;;4998832;28;20061;-89
2022/01/03 06:34:43;;;;;;;64.53;41.42;;;;;;;;;;4998467;28;20030;-90
2022/01/03 06:37:09;;;;;;;54.58;36.17;;;;;;;;;;4997899;28;20047;-89
2022/01/03 06:39:35;;;;;;;56.40;35.35;;;;;;;;;;4998704;28;20033;-89
2022/01/03 06:42:01;;;;;;;57.35;37.38;;;;;;;;;;4998041;28;20037;-90
2022/01/03 06:44:27;;;;;;;77.35;53.17;;;;;;;;;;4998039;28;20463;-90
2022/01/03 06:46:53;;;;;;;79.03;54.63;;;;;;;;;;4998625;28;20034;-91
2022/01/03 06:49:19;;;;;;;88.40;57.03;;;;;;;;;;4998549;28;20033;-90
2022/01/03 06:51:45;;;;;;;61.92;42.25;;;;;;;;;;4997864;28;20405;-90
2022/01/03 06:54:12;;;;;;;66.35;46.50;;;;;;;;;;4997147;28;20030;-90
2022/01/03 06:56:38;;;;;;;96.32;61.72;;;;;;;;;;4998653;28;20026;-90
2022/01/03 06:59:04;;;;;;;88.45;55.20;;;;;;;;;;4997896;28;20159;-90
2022/01/03 07:01:30;;;;;;;65.60;43.03;;;;;;;;;;4997894;28;20050;-92
2022/01/03 07:03:56;;;;;;;60.83;39.05;;;;;;;;;;4996758;28;20121;-93
2022/01/03 07:06:22;;;;;;;67.82;41.50;;;;;;;;;;4997438;28;20038;-92
2022/01/03 07:08:48;;;;;;;74.40;44.65;;;;;;;;;;4997978;28;20436;-92
2022/01/03 07:11:15;;;;;;;76.55;45.97;;;;;;;;;;4998164;28;20030;-92
2022/01/03 07:13:45;;;;;;;76.00;48.25;;;;;;;;;;4998258;28;20031;-89
2022/01/03 07:18:56;;;;;;;76.57;50.58;;;;;;;;;;4998168;28;20042;-89
2022/01/03 07:21:23;;;;;;;82.18;55.15;;;;;;;;;;4997878;28;20027;-89
2022/01/03 07:23:49;;;;;;;81.00;50.97;;;;;;;;;;4998417;28;20142;-89
2022/01/03 07:26:15;;;;;;;84.65;53.38;;;;;;;;;;4997783;28;20037;-90
2022/01/03 07:28:42;;;;;;;80.75;51.10;;;;;;;;;;4996808;28;20026;-88
2022/01/03 07:31:08;;;;;;;87.72;54.25;;;;;;;;;;4996839;28;20030;-89
2022/01/03 07:36:37;;;;;;;72.57;46.80;;;;;;;;;;4989587;28;20073;-91
2022/01/03 07:39:04;;;;;;;80.90;51.13;;;;;;;;;;4996557;28;20042;-90
2022/01/03 07:41:31;;;;;;;88.82;54.38;;;;;;;;;;4999578;28;20023;-89
2022/01/03 07:43:57;;;;;;;91.05;55.60;;;;;;;;;;5001234;28;20400;-90
2022/01/03 07:46:23;;;;;;;80.80;50.80;;;;;;;;;;5000238;28;20026;-89
2022/01/03 07:48:49;;;;;;;77.03;48.53;;;;;;;;;;5001004;28;20026;-89
2022/01/03 07:51:15;;;;;;;73.78;47.55;;;;;;;;;;5001831;28;20026;-89
2022/01/03 07:53:42;;;;;;;73.13;49.03;;;;;;;;;;5001331;28;20022;-89
2022/01/03 07:56:09;;;;;;;81.25;50.33;;;;;;;;;;5000905;28;20026;-90
2022/01/03 07:58:36;;;;;;;83.80;51.03;;;;;;;;;;5001976;28;20026;-88
2022/01/03 08:01:02;;;;;;;90.45;52.92;;;;;;;;;;5001270;28;20031;-89
2022/01/03 08:06:32;;;;;;;149.68;84.88;;;;;;;;;;4994649;28;20080;-89
2022/01/03 08:08:58;;;;;;;185.63;116.53;;;;;;;;;;5001523;28;20027;-89
2022/01/03 08:11:26;;;;;;;167.88;92.93;;;;;;;;;;5001465;28;20030;-89
2022/01/03 08:13:53;;;;;;;152.13;79.55;;;;;;;;;;4984603;28;20042;-89
2022/01/03 08:16:19;;;;;;;92.03;52.15;;;;;;;;;;5000350;28;20405;-89
2022/01/03 08:18:45;;;;;;;74.32;44.05;;;;;;;;;;5000217;28;20413;-90
2022/01/03 08:21:13;;;;;;;100.55;48.00;;;;;;;;;;5000486;28;20451;-91
2022/01/03 08:23:40;;;;;;;106.43;52.45;;;;;;;;;;5001138;28;20023;-88
2022/01/03 08:26:06;;;;;;;83.13;45.92;;;;;;;;;;5000602;28;20027;-88
2022/01/03 08:28:32;;;;;;;69.40;42.60;;;;;;;;;;5001119;28;20356;-88
2022/01/03 08:30:58;;;;;;;61.40;40.67;;;;;;;;;;5001245;28;20037;-88
2022/01/03 08:33:24;;;;;;;61.95;39.33;;;;;;;;;;5000955;28;20080;-88
2022/01/03 08:35:50;;;;;;;60.13;38.92;;;;;;;;;;5000615;28;20038;-89
2022/01/03 08:38:16;;;;;;;69.53;43.03;;;;;;;;;;5001203;28;20329;-90
2022/01/03 08:40:42;;;;;;;70.70;44.90;;;;;;;;;;4999838;28;20037;-87
2022/01/03 08:43:08;;;;;;;69.90;43.63;;;;;;;;;;5000909;28;20030;-88
2022/01/03 08:45:34;;;;;;;77.28;44.15;;;;;;;;;;5001074;28;20076;-87
2022/01/03 08:48:00;;;;;;;68.25;43.42;;;;;;;;;;5000695;28;20033;-87
2022/01/03 08:50:27;;;;;;;75.25;44.63;;;;;;;;;;5000584;28;20058;-86
2022/01/03 08:52:53;;;;;;;72.88;42.70;;;;;;;;;;4999529;28;20036;-87
2022/01/03 08:55:20;;;;;;;65.90;41.30;;;;;;;;;;5000252;28;20034;-87
2022/01/03 08:57:51;;;;;;;61.17;38.42;;;;;;;;;;4999276;28;20134;-88
2022/01/03 09:00:17;;;;;;;56.05;34.38;;;;;;;;;;5000763;28;20347;-89
2022/01/03 09:02:44;;;;;;;56.88;35.53;;;;;;;;;;5000872;28;20089;-87
2022/01/03 09:05:10;;;;;;;59.17;37.22;;;;;;;;;;5000273;28;20133;-88
2022/01/03 09:07:36;;;;;;;58.65;37.60;;;;;;;;;;4999362;28;20115;-88
2022/01/03 09:10:03;;;;;;;54.80;35.85;;;;;;;;;;5000101;28;20413;-88
2022/01/03 09:12:29;;;;;;;49.15;33.78;;;;;;;;;;4999817;28;20408;-88
2022/01/03 09:14:55;;;;;;;61.22;40.15;;;;;;;;;;4998896;28;20424;-88
2022/01/03 09:17:21;;;;;;;61.88;39.17;;;;;;;;;;5000308;28;20428;-89
2022/01/03 09:22:55;;;;;;;68.35;41.50;;;;;;;;;;5000125;28;20045;-89
2022/01/03 09:30:48;;;;;;;62.15;37.60;;;;;;;;;;4999925;28;20089;-87
2022/01/03 09:36:17;;;;;;;49.42;31.42;;;;;;;;;;4999686;28;20093;-88
2022/01/03 09:38:43;;;;;;;48.75;32.38;;;;;;;;;;5000029;28;20022;-87
2022/01/03 09:41:11;;;;;;;55.15;34.92;;;;;;;;;;4998570;28;20038;-88
2022/01/03 09:43:41;;;;;;;49.95;31.20;;;;;;;;;;4998700;28;20074;-87
2022/01/03 09:46:10;;;;;;;45.75;28.83;;;;;;;;;;4999499;28;20026;-89
2022/01/03 09:48:55;;;;;;;45.92;29.58;;;;;;;;;;4998256;28;20125;-88
2022/01/03 09:51:22;;;;;;;50.38;30.45;;;;;;;;;;4999885;28;20038;-88
2022/01/03 09:53:49;;;;;;;43.22;27.83;;;;;;;;;;4998768;28;20038;-89
2022/01/03 09:56:16;;;;;;;47.13;29.02;;;;;;;;;;4999403;28;20030;-90
2022/01/03 09:58:42;;;;;;;52.70;34.22;;;;;;;;;;4999805;28;20022;-89
2022/01/03 10:01:09;;;;;;;66.57;44.20;;;;;;;;;;4998343;28;20421;-88
2022/01/03 10:03:35;;;;;;;77.78;54.53;;;;;;;;;;4999405;28;20034;-90
2022/01/03 10:06:01;;;;;;;74.22;50.13;;;;;;;;;;4999216;28;20121;-89
2022/01/03 10:08:28;;;;;;;65.82;42.88;;;;;;;;;;4998396;28;20029;-89
2022/01/03 10:10:54;;;;;;;57.92;35.60;;;;;;;;;;4999504;28;20053;-89
2022/01/03 10:13:21;;;;;;;57.20;36.47;;;;;;;;;;4999444;28;20022;-89
2022/01/03 10:15:47;;;;;;;48.95;31.17;;;;;;;;;;4999191;28;20038;-88
2022/01/03 10:18:20;;;;;;;44.85;29.65;;;;;;;;;;4999192;28;20041;-88
2022/01/03 10:20:46;;;;;;;42.88;28.85;;;;;;;;;;4997595;28;20026;-88
2022/01/03 10:23:14;;;;;;;61.10;35.92;;;;;;;;;;4998712;28;20027;-88
2022/01/03 10:25:41;;;;;;;92.60;47.40;;;;;;;;;;4997684;28;20045;-88
2022/01/03 10:28:07;;;;;;;119.97;53.15;;;;;;;;;;4999135;28;20081;-88
2022/01/03 10:30:45;;;;;;;93.07;48.95;;;;;;;;;;4997875;28;20447;-88
2022/01/03 10:33:14;;;;;;;66.75;39.60;;;;;;;;;;4997799;28;20080;-87
2022/01/03 10:35:47;;;;;;;77.20;40.42;;;;;;;;;;4997744;28;20417;-87
2022/01/03 10:38:32;;;;;;;94.95;48.90;;;;;;;;;;4997696;28;20093;-88
2022/01/03 10:41:11;;;;;;;92.40;48.00;;;;;;;;;;4998370;28;20058;-88
2022/01/03 10:43:37;;;;;;;67.32;37.95;;;;;;;;;;4998558;28;20019;-88
2022/01/03 10:46:23;;;;;;;70.95;39.85;;;;;;;;;;4998624;28;20052;-89
2022/01/03 10:48:50;;;;;;;68.30;39.35;;;;;;;;;;4998544;28;20022;-88
2022/01/03 10:51:26;;;;;;;48.75;29.40;;;;;;;;;;4998392;28;20056;-88
2022/01/03 10:53:55;;;;;;;42.92;28.00;;;;;;;;;;4998026;28;20054;-88
2022/01/03 10:56:23;;;;;;;57.35;30.02;;;;;;;;;;4997348;28;20038;-87
2022/01/03 10:58:49;;;;;;;74.40;30.55;;;;;;;;;;4998752;28;20353;-88
2022/01/03 11:01:20;;;;;;;42.47;23.63;;;;;;;;;;4997087;28;20026;-88
2022/01/03 11:03:47;;;;;;;32.05;22.63;;;;;;;;;;4997952;28;20040;-88
2022/01/03 11:06:22;;;;;;;35.40;22.42;;;;;;;;;;4998446;28;20105;-88
2022/01/03 11:11:38;;;;;;;33.67;20.77;;;;;;;;;;4998625;28;20040;-88
2022/01/03 11:14:04;;;;;;;28.63;18.70;;;;;;;;;;4997418;28;20030;-89
2022/01/03 11:16:34;;;;;;;32.08;16.40;;;;;;;;;;4997539;28;20038;-88
2022/01/03 11:19:00;;;;;;;28.77;16.15;;;;;;;;;;4998102;28;20053;-89
2022/01/03 11:21:28;;;;;;;32.65;17.83;;;;;;;;;;4997131;28;20417;-89
2022/01/03 11:24:11;;;;;;;30.42;15.85;;;;;;;;;;4998430;28;20080;-88
2022/01/03 11:26:43;;;;;;;32.97;18.60;;;;;;;;;;5003989;28;20033;-88
2022/01/03 11:29:09;;;;;;;40.88;19.45;;;;;;;;;;5017833;28;20018;-89
2022/01/03 11:31:39;;;;;;;28.92;15.23;;;;;;;;;;5013032;28;20030;-88
2022/01/03 11:34:09;;;;;;;63.20;26.23;;;;;;;;;;5017664;28;20034;-90
2022/01/03 11:36:36;;;;;;;47.45;21.15;;;;;;;;;;4999593;28;20073;-89
2022/01/03 11:39:10;;;;;;;49.92;23.17;;;;;;;;;;4997173;28;20333;-88
2022/01/03 11:41:38;;;;;;;43.15;20.27;;;;;;;;;;4998074;28;20030;-88
2022/01/03 11:44:04;;;;;;;52.50;29.02;;;;;;;;;;5009982;28;20026;-91
2022/01/03 11:46:31;;;;;;;51.05;28.73;;;;;;;;;;5016685;28;20085;-88
2022/01/03 11:48:58;;;;;;;53.45;28.08;;;;;;;;;;5016580;28;20038;-89
2022/01/03 11:51:28;;;;;;;63.15;35.20;;;;;;;;;;5016615;28;20030;-88
2022/01/03 11:53:55;;;;;;;50.30;31.13;;;;;;;;;;5004377;28;20069;-88
2022/01/03 11:56:22;;;;;;;45.15;26.23;;;;;;;;;;4997572;28;20026;-89
2022/01/03 11:59:02;;;;;;;40.60;23.75;;;;;;;;;;4997048;28;20421;-88
2022/01/03 12:04:19;;;;;;;63.40;31.05;;;;;;;;;;4997955;28;20089;-85
2022/01/03 12:06:46;;;;;;;53.85;33.80;;;;;;;;;;4997002;28;20413;-86
2022/01/03 12:09:14;;;;;;;45.88;23.35;;;;;;;;;;4996696;28;20333;-88
2022/01/03 12:11:52;;;;;;;47.35;23.83;;;;;;;;;;4996412;28;20046;-90
2022/01/03 12:14:19;;;;;;;44.58;20.25;;;;;;;;;;4997965;28;20405;-88
2022/01/03 12:17:02;;;;;;;37.00;17.10;;;;;;;;;;4996725;28;20409;-87
2022/01/03 12:20:05;;;;;;;29.13;17.05;;;;;;;;;;4989086;28;20030;-87
2022/01/03 12:22:47;;;;;;;36.38;22.52;;;;;;;;;;4996477;28;20038;-86
2022/01/03 12:25:25;;;;;;;32.85;18.92;;;;;;;;;;4996511;28;20069;-82
2022/01/03 12:27:57;;;;;;;31.95;18.95;;;;;;;;;;4999464;28;20132;-86
2022/01/03 12:30:27;;;;;;;55.42;31.98;;;;;;;;;;5000783;28;20030;-85
2022/01/03 12:33:08;;;;;;;23.25;14.43;;;;;;;;;;5001085;28;20037;-86
2022/01/03 12:35:38;;;;;;;57.05;25.95;;;;;;;;;;4999784;28;20084;-85
2022/01/03 12:38:04;;;;;;;27.73;17.60;;;;;;;;;;4999743;28;20077;-84
2022/01/03 12:40:35;;;;;;;27.13;18.15;;;;;;;;;;4999765;28;20053;-88
2022/01/03 12:43:02;;;;;;;32.85;20.48;;;;;;;;;;5001029;28;20023;-89
2022/01/03 12:45:35;;;;;;;30.20;19.13;;;;;;;;;;5000894;28;20023;-90
2022/01/03 12:48:00;;;;;;;;;;;;;;;;;;5001115;28;20417;-85
2022/01/03 12:50:29;;;;;;;30.67;19.38;;;;;;;;;;5000757;28;20044;-85
2022/01/03 12:52:57;;;;;;;36.38;23.73;;;;;;;;;;4999585;28;20037;-85
2022/01/03 12:55:38;;;;;;;37.65;24.92;;;;;;;;;;5000545;28;20138;-85
2022/01/03 12:58:04;;;;;;;35.47;23.90;;;;;;;;;;5000546;28;20022;-86
2022/01/03 13:00:43;;;;;;;38.30;24.38;;;;;;;;;;5000363;28;20101;-85
2022/01/03 13:03:22;;;;;;;46.50;26.55;;;;;;;;;;4999347;28;20018;-85
2022/01/03 13:06:06;;;;;;;53.65;29.35;;;;;;;;;;5000103;28;20025;-85
2022/01/03 13:08:33;;;;;;;53.30;31.95;;;;;;;;;;4999410;28;20030;-85
2022/01/03 13:11:04;;;;;;;40.47;24.77;;;;;;;;;;5000119;28;20069;-85
2022/01/03 13:13:30;;;;;;;34.20;21.88;;;;;;;;;;5000346;28;20026;-85
2022/01/03 13:15:56;;;;;;;33.28;21.33;;;;;;;;;;4998998;28;20034;-85
2022/01/03 13:18:22;;;;;;;39.83;24.42;;;;;;;;;;4999102;28;20046;-85
2022/01/03 13:20:59;;;;;;;43.90;27.35;;;;;;;;;;5000028;28;20058;-85
2022/01/03 13:23:25;;;;;;;40.40;24.27;;;;;;;;;;4999041;28;20045;-85
2022/01/03 13:26:01;;;;;;;41.42;24.38;;;;;;;;;;4998948;28;20113;-85
2022/01/03 13:28:27;;;;;;;42.72;23.73;;;;;;;;;;4999860;28;20022;-86
2022/01/03 13:31:00;;;;;;;46.45;27.38;;;;;;;;;;4998924;28;20106;-85
2022/01/03 13:33:26;;;;;;;48.33;28.95;;;;;;;;;;4999996;28;20049;-85
2022/01/03 13:36:02;;;;;;;52.90;29.48;;;;;;;;;;4999614;28;20125;-85
2022/01/03 13:38:28;;;;;;;55.40;31.77;;;;;;;;;;4998909;28;20070;-85
2022/01/03 13:40:55;;;;;;;51.40;33.50;;;;;;;;;;4998529;28;20038;-86
2022/01/03 13:43:27;;;;;;;42.30;29.38;;;;;;;;;;4998628;28;20043;-86
2022/01/03 13:51:25;;;;;;;92.13;46.80;;;;;;;;;;4959185;29;20097;-84
2022/01/03 13:53:51;;;;;;;51.70;32.28;;;;;;;;;;4958542;29;20386;-85
2022/01/03 13:56:18;;;;;;;39.85;27.25;;;;;;;;;;4958903;29;20127;-85
2022/01/03 13:58:45;;;;;;;55.58;31.17;;;;;;;;;;4958900;29;20114;-85
2022/01/03 14:01:11;;;;;;;64.25;31.52;;;;;;;;;;4958553;29;20075;-86
2022/01/03 14:03:39;;;;;;;68.40;34.50;;;;;;;;;;4958668;28;20318;-86
2022/01/03 14:06:21;;;;;;;73.10;36.72;;;;;;;;;;4958851;29;20074;-85
2022/01/03 14:08:50;;;;;;;47.88;27.45;;;;;;;;;;4958882;29;20123;-86
2022/01/03 14:11:18;;;;;;;65.22;38.15;;;;;;;;;;4958663;29;20042;-85
2022/01/03 14:13:44;;;;;;;43.28;26.80;;;;;;;;;;4958414;29;20429;-86
2022/01/03 14:16:14;;;;;;;54.55;29.92;;;;;;;;;;4958395;29;20039;-85
2022/01/03 14:18:53;;;;;;;57.03;30.50;;;;;;;;;;4958523;28;20043;-85
2022/01/03 14:21:20;;;;;;;60.45;25.85;;;;;;;;;;4958365;29;20039;-85
2022/01/03 14:23:46;;;;;;;56.67;27.95;;;;;;;;;;4958414;29;20031;-85
2022/01/03 14:26:20;;;;;;;65.88;31.85;;;;;;;;;;4986009;28;20034;-85
2022/01/03 14:28:47;;;;;;;61.92;32.30;;;;;;;;;;4998595;28;20073;-86
2022/01/03 14:31:13;;;;;;;74.88;41.17;;;;;;;;;;4998512;28;20022;-86
2022/01/03 14:33:39;;;;;;;80.68;45.55;;;;;;;;;;4998547;28;20033;-86
2022/01/03 14:36:18;;;;;;;83.18;46.17;;;;;;;;;;4998401;28;20101;-85
2022/01/03 14:38:45;;;;;;;85.38;45.90;;;;;;;;;;4998824;28;20072;-87
2022/01/03 14:41:25;;;;;;;75.45;40.75;;;;;;;;;;4998277;28;20049;-87
2022/01/03 14:44:02;;;;;;;72.72;39.47;;;;;;;;;;4997589;28;20061;-87
2022/01/03 14:46:35;;;;;;;64.88;36.25;;;;;;;;;;4998773;28;20045;-87
2022/01/03 14:49:03;;;;;;;58.70;32.63;;;;;;;;;;4998561;28;20030;-87
2022/01/03 14:51:35;;;;;;;58.75;33.28;;;;;;;;;;4997495;28;20439;-87
2022/01/03 14:54:01;;;;;;;;;;;;;;;;;;4999025;28;20038;-87
2022/01/03 14:56:27;;;;;;;57.15;32.28;;;;;;;;;;4998419;28;20308;-87
2022/01/03 14:59:08;;;;;;;49.17;31.08;;;;;;;;;;4998345;28;20033;-88
2022/01/03 15:01:34;;;;;;;66.05;36.28;;;;;;;;;;4998355;28;20127;-86
2022/01/03 15:04:01;;;;;;;64.72;35.38;;;;;;;;;;4997072;28;20097;-87
2022/01/03 15:06:27;;;;;;;49.05;26.00;;;;;;;;;;4997177;28;20034;-87
2022/01/03 15:08:54;;;;;;;55.15;30.33;;;;;;;;;;4998269;28;20069;-86
2022/01/03 15:11:21;;;;;;;53.63;30.25;;;;;;;;;;4997378;28;20447;-85